Terminal Aerodrome Forecast
Issued by NWS

Current Version | Previous Version | Text Only | Print | Product List | Glossary On
Versions: 1 2 3 4 5 6 7 8 9 10 11 12 13 14 15
000
FTUS45 KRIW 021121
TAFCOD
TAF
KCOD 021121Z 0212/0312 22007KT P6SM FEW110
     FM021700 16010KT P6SM SCT100
     FM022200 24010G18KT P6SM SCT100
     FM030100 21010KT P6SM SCT100
     FM031100 21007KT P6SM BKN100
      AMD LTD TO CLD VIS AND WIND=

USA.gov is the U.S. government's official web portal to all federal, state and local government web resources and services.